Time;durP1;ratioP1;P1;durP2;ratioP2;P2;SDS_P1;SDS_P2;PMS_P1;PMS_P2;Temp;Humidity;BMP_temperature;BMP_pressure;BME280_temperature;BME280_humidity;BME280_pressure;Samples;Min_cycle;Max_cycle;Signal;HPM_P1;HPM_P2
2023/01/25 00:00:40;;;;;;;18.05;7.55;;;;;;;3.32;73.55;96339.97;4994263;28;20731;-76
2023/01/25 00:03:05;;;;;;;14.13;7.03;;;;;;;3.41;73.10;96336.16;4967690;28;20035;-76
2023/01/25 00:05:31;;;;;;;14.38;6.50;;;;;;;3.38;73.93;96338.38;4988295;28;20050;-76
2023/01/25 00:07:56;;;;;;;12.43;6.60;;;;;;;2.93;74.75;96285.69;4967631;28;20027;-76
2023/01/25 00:10:21;;;;;;;12.10;7.13;;;;;;;3.37;74.87;96342.00;4992703;28;20030;-76
2023/01/25 00:12:48;;;;;;;11.73;6.53;;;;;;;3.18;75.06;96324.44;4989880;28;20042;-76
2023/01/25 00:15:14;;;;;;;14.20;7.13;;;;;;;3.01;74.99;96301.22;4958314;28;20039;-76
2023/01/25 00:17:39;;;;;;;11.13;6.50;;;;;;;3.32;74.92;96339.97;4965058;28;20089;-76
2023/01/25 00:20:05;;;;;;;12.80;6.47;;;;;;;3.34;74.53;96345.03;4987635;28;20050;-76
2023/01/25 00:22:31;;;;;;;11.05;6.60;;;;;;;3.31;74.59;96335.75;4982644;28;20042;-76
2023/01/25 00:24:56;;;;;;;10.20;5.88;;;;;;;3.23;74.66;96337.75;4984145;28;20066;-76
2023/01/25 00:27:22;;;;;;;13.07;6.20;;;;;;;3.22;75.24;96336.13;4967050;28;20038;-76
2023/01/25 00:29:47;;;;;;;16.65;7.38;;;;;;;2.69;75.85;96262.63;4963834;28;20039;-76
2023/01/25 00:32:13;;;;;;;15.30;7.30;;;;;;;3.28;75.67;96337.97;4964565;28;20079;-76
2023/01/25 00:34:44;;;;;;;12.20;6.47;;;;;;;3.17;75.41;96310.53;4964464;28;20039;-76
2023/01/25 00:37:29;;;;;;;12.98;6.70;;;;;;;3.07;75.54;96333.69;4967176;28;20562;-76
2023/01/25 00:39:55;;;;;;;11.07;6.68;;;;;;;2.89;76.10;96317.72;4974370;28;20077;-76
2023/01/25 00:42:21;;;;;;;12.05;6.43;;;;;;;3.10;76.17;96336.72;4940589;29;20790;-76
2023/01/25 00:44:47;;;;;;;12.45;6.60;;;;;;;2.56;75.39;96249.50;4939833;29;20118;-76
2023/01/25 00:47:13;;;;;;;11.68;6.10;;;;;;;3.11;75.24;96329.66;4965120;28;20111;-76
2023/01/25 00:49:40;;;;;;;12.93;6.88;;;;;;;3.18;75.32;96342.78;4955940;28;20039;-76
2023/01/25 00:52:06;;;;;;;10.95;5.70;;;;;;;3.13;75.29;96313.75;4973247;28;20095;-76
2023/01/25 00:54:32;;;;;;;10.88;6.00;;;;;;;3.12;75.57;96310.31;4973270;28;20034;-76
2023/01/25 00:56:57;;;;;;;10.13;5.25;;;;;;;3.27;75.81;96337.16;4959473;28;20045;-76
2023/01/25 00:59:23;;;;;;;9.73;5.45;;;;;;;3.14;75.34;96321.38;4964298;28;20516;-76
2023/01/25 01:01:49;;;;;;;12.10;5.95;;;;;;;2.86;74.98;96281.44;4979604;28;20409;-76
2023/01/25 01:04:15;;;;;;;12.05;6.25;;;;;;;3.19;74.45;96326.06;4952252;28;20042;-76
2023/01/25 01:06:41;;;;;;;10.85;5.40;;;;;;;2.89;74.56;96300.19;4957365;28;20045;-76
2023/01/25 01:09:12;;;;;;;12.27;6.38;;;;;;;2.89;74.79;96287.09;4973091;28;20165;-76
2023/01/25 01:11:37;;;;;;;11.10;5.20;;;;;;;3.16;74.45;96337.72;4978337;28;20050;-76
2023/01/25 01:14:03;;;;;;;11.68;5.80;;;;;;;3.21;73.79;96334.50;4974590;28;20038;-76
2023/01/25 01:16:28;;;;;;;13.57;5.68;;;;;;;3.22;74.06;96334.31;4993083;28;20142;-76
2023/01/25 01:18:53;;;;;;;14.40;6.18;;;;;;;2.37;74.91;96197.88;4992336;28;20038;-76
2023/01/25 01:21:19;;;;;;;13.45;6.25;;;;;;;2.86;75.31;96279.63;4992210;28;20041;-76
2023/01/25 01:23:45;;;;;;;13.50;6.75;;;;;;;2.90;74.88;96285.28;4992255;28;20038;-76
2023/01/25 01:26:13;;;;;;;13.77;6.95;;;;;;;2.85;74.52;96270.13;5006033;28;20062;-76
2023/01/25 01:28:39;;;;;;;12.63;6.25;;;;;;;3.05;74.81;96304.25;5012286;28;20523;-76
2023/01/25 01:31:23;;;;;;;14.93;6.90;;;;;;;2.81;74.92;96255.84;4994351;28;20415;-76
2023/01/25 01:33:52;;;;;;;13.68;6.50;;;;;;;3.25;74.63;96323.44;5011202;28;20041;-76
2023/01/25 01:36:21;;;;;;;15.25;6.53;;;;;;;3.07;74.82;96310.09;4992056;28;20038;-76
2023/01/25 01:38:46;;;;;;;12.25;6.63;;;;;;;2.91;75.34;96263.28;4978709;28;20416;-76
2023/01/25 01:41:13;;;;;;;12.57;6.63;;;;;;;2.59;75.51;96221.13;5011838;28;20033;-76
2023/01/25 01:43:38;;;;;;;10.43;6.18;;;;;;;2.71;75.27;96245.72;5011262;28;20412;-76
2023/01/25 01:46:19;;;;;;;13.07;5.93;;;;;;;3.22;75.36;96318.59;5011202;28;20030;-76
2023/01/25 01:48:50;;;;;;;10.25;5.53;;;;;;;2.52;75.51;96206.38;5011854;28;20064;-76
2023/01/25 01:51:45;;;;;;;9.93;5.55;;;;;;;3.24;74.76;96311.34;5011933;28;20496;-76
2023/01/25 01:54:29;;;;;;;11.10;6.05;;;;;;;2.94;74.93;96273.38;5010127;28;20468;-76
2023/01/25 01:57:03;;;;;;;10.00;5.90;;;;;;;2.95;75.18;96296.78;4993064;28;20041;-76
2023/01/25 01:59:39;;;;;;;9.02;5.43;;;;;;;2.51;75.31;96275.50;4993594;28;20828;-76
2023/01/25 02:02:04;;;;;;;11.38;5.35;;;;;;;2.69;75.67;96292.25;5010906;28;20472;-76
2023/01/25 02:04:31;;;;;;;9.00;5.10;;;;;;;2.66;75.64;96266.47;5011534;28;20034;-76
2023/01/25 02:07:03;;;;;;;9.50;5.40;;;;;;;2.96;76.23;96310.69;5011420;28;20030;-76
2023/01/25 02:09:32;;;;;;;14.07;5.88;;;;;;;2.92;76.02;96312.88;4993363;28;20045;-76
2023/01/25 02:11:58;;;;;;;10.23;5.57;;;;;;;2.84;75.53;96276.38;4992923;28;20041;-76
2023/01/25 02:14:27;;;;;;;10.82;5.43;;;;;;;2.57;75.79;96243.28;5011190;28;20033;-76
2023/01/25 02:16:52;;;;;;;11.80;5.95;;;;;;;3.02;75.54;96315.94;5000152;28;20518;-76
2023/01/25 02:19:51;;;;;;;9.77;4.95;;;;;;;3.08;75.46;96309.09;4991744;28;20038;-76
2023/01/25 02:22:22;;;;;;;10.55;5.32;;;;;;;3.03;75.38;96303.66;4969854;28;20057;-76
2023/01/25 02:25:04;;;;;;;12.57;5.80;;;;;;;2.73;75.83;96256.03;5011000;28;20050;-76
2023/01/25 02:27:32;;;;;;;11.68;6.10;;;;;;;2.76;76.24;96265.28;4986002;28;20044;-76
2023/01/25 02:29:58;;;;;;;9.70;5.65;;;;;;;2.72;76.21;96257.03;4992314;28;20058;-76
2023/01/25 02:32:23;;;;;;;10.40;5.63;;;;;;;2.78;76.10;96282.41;5009127;28;20040;-76
2023/01/25 02:34:49;;;;;;;9.32;5.25;;;;;;;2.87;76.11;96286.47;5011452;28;20033;-76
2023/01/25 02:37:14;;;;;;;11.48;6.03;;;;;;;2.78;76.07;96258.03;4995693;28;20086;-76
2023/01/25 02:39:41;;;;;;;10.38;5.35;;;;;;;2.77;75.53;96265.09;4991008;28;20073;-76
2023/01/25 02:42:06;;;;;;;11.95;5.20;;;;;;;3.08;75.72;96302.03;4990495;28;20042;-76
2023/01/25 02:44:32;;;;;;;9.98;5.28;;;;;;;3.04;75.44;96305.25;4991098;28;20184;-76
2023/01/25 02:46:58;;;;;;;10.40;5.20;;;;;;;2.95;75.68;96286.28;4988700;28;20068;-76
2023/01/25 02:49:24;;;;;;;11.38;5.57;;;;;;;2.82;75.52;96273.16;4973555;28;20039;-74
2023/01/25 02:51:56;;;;;;;12.68;6.18;;;;;;;2.94;76.40;96295.16;4991092;28;20468;-74
2023/01/25 02:54:23;;;;;;;9.10;5.10;;;;;;;2.89;75.67;96268.75;4991576;28;20073;-74
2023/01/25 02:56:48;;;;;;;9.45;4.82;;;;;;;2.71;76.20;96248.34;4973863;28;20039;-78
2023/01/25 02:59:14;;;;;;;10.20;5.65;;;;;;;2.69;75.40;96242.50;4990264;28;20039;-77
2023/01/25 03:01:41;;;;;;;8.30;4.78;;;;;;;2.76;75.96;96281.78;4990618;28;20625;-78
2023/01/25 03:04:07;;;;;;;16.77;5.82;;;;;;;2.81;75.76;96249.78;4989937;28;20030;-77
2023/01/25 03:06:34;;;;;;;9.50;5.15;;;;;;;2.90;75.13;96266.94;4973228;28;20133;-78
2023/01/25 03:09:00;;;;;;;10.80;4.10;;;;;;;3.11;74.72;96298.22;4986904;28;20038;-77
2023/01/25 03:11:25;;;;;;;8.98;4.35;;;;;;;3.11;74.19;96308.69;4992516;28;20393;-78
2023/01/25 03:13:51;;;;;;;8.65;4.07;;;;;;;2.97;74.01;96307.06;5009956;28;20046;-78
2023/01/25 03:16:17;;;;;;;9.07;5.18;;;;;;;2.95;73.79;96315.13;5010453;28;20486;-77
2023/01/25 03:18:43;;;;;;;14.07;4.38;;;;;;;2.86;73.76;96299.75;5010090;28;20038;-77
2023/01/25 03:21:08;;;;;;;9.43;4.55;;;;;;;2.89;74.45;96310.69;5009079;28;20080;-77
2023/01/25 03:23:34;;;;;;;7.28;4.05;;;;;;;2.85;74.91;96301.56;4991972;28;20033;-77
2023/01/25 03:26:05;;;;;;;10.07;4.60;;;;;;;2.91;75.78;96302.59;5009683;28;20511;-78
2023/01/25 03:28:30;;;;;;;12.13;4.70;;;;;;;2.76;76.33;96300.13;5009357;28;20040;-77
2023/01/25 03:30:56;;;;;;;11.25;5.30;;;;;;;2.88;76.80;96308.25;5010487;28;20038;-77
2023/01/25 03:33:21;;;;;;;11.48;4.60;;;;;;;2.48;76.13;96229.56;5008194;28;20042;-77
2023/01/25 03:35:51;;;;;;;11.73;5.25;;;;;;;2.61;76.22;96257.56;5009820;28;20493;-78
2023/01/25 03:38:18;;;;;;;8.75;4.53;;;;;;;2.58;75.95;96245.72;5009740;28;20038;-77
2023/01/25 03:40:43;;;;;;;11.48;4.95;;;;;;;2.42;75.75;96212.03;4992203;28;20038;-77
2023/01/25 03:43:09;;;;;;;10.73;4.65;;;;;;;3.05;76.04;96305.03;4992107;28;20431;-77
2023/01/25 03:45:34;;;;;;;12.10;4.93;;;;;;;2.68;75.71;96277.53;4991972;28;20041;-78
2023/01/25 03:48:00;;;;;;;12.23;5.28;;;;;;;2.46;75.24;96226.31;5009938;28;20038;-78
2023/01/25 03:50:25;;;;;;;11.00;5.95;;;;;;;2.66;76.36;96256.00;5008384;28;20492;-77
2023/01/25 03:53:20;;;;;;;9.73;5.07;;;;;;;2.96;75.85;96284.47;5009888;28;20045;-78
2023/01/25 03:55:46;;;;;;;12.90;5.68;;;;;;;2.95;75.10;96278.44;4992137;28;20042;-77
2023/01/25 03:58:11;;;;;;;10.57;5.60;;;;;;;2.76;74.73;96247.75;5008333;28;20041;-78
2023/01/25 04:00:37;;;;;;;14.18;5.65;;;;;;;2.99;75.10;96286.69;4991670;28;20038;-78
2023/01/25 04:03:02;;;;;;;11.95;5.72;;;;;;;3.09;75.47;96284.50;4991833;28;20061;-78
2023/01/25 04:05:27;;;;;;;9.73;5.03;;;;;;;2.83;76.22;96266.09;5009860;28;20042;-78
2023/01/25 04:07:53;;;;;;;11.35;5.13;;;;;;;2.25;75.29;96167.06;5009890;28;20034;-78
2023/01/25 04:10:18;;;;;;;11.30;5.22;;;;;;;2.98;75.52;96264.91;4991529;28;20038;-78
2023/01/25 04:12:44;;;;;;;12.20;5.22;;;;;;;3.12;75.33;96280.69;5009699;28;20042;-77
2023/01/25 04:15:09;;;;;;;14.13;6.78;;;;;;;3.05;74.97;96288.53;5010223;28;20470;-78
2023/01/25 04:17:35;;;;;;;11.27;5.25;;;;;;;2.69;75.05;96239.88;5009528;28;20045;-78
2023/01/25 04:20:00;;;;;;;10.57;5.18;;;;;;;2.52;75.61;96216.84;4991537;28;20041;-77
2023/01/25 04:22:25;;;;;;;13.35;4.85;;;;;;;2.90;75.17;96261.69;5009445;28;20069;-78
2023/01/25 04:24:51;;;;;;;9.77;4.88;;;;;;;2.74;75.31;96252.41;5009636;28;20092;-77
2023/01/25 04:27:16;;;;;;;9.20;4.28;;;;;;;2.47;75.25;96200.94;4991741;28;20052;-77
2023/01/25 04:29:42;;;;;;;11.88;4.65;;;;;;;2.77;75.38;96236.25;5007461;28;20038;-78
2023/01/25 04:32:07;;;;;;;9.20;4.88;;;;;;;2.90;75.74;96257.25;4988874;28;20097;-78
2023/01/25 04:34:32;;;;;;;6.55;4.40;;;;;;;2.98;75.35;96264.91;4989964;28;20033;-78
2023/01/25 04:36:58;;;;;;;9.57;5.20;;;;;;;3.06;75.36;96290.13;4989567;28;20038;-77
2023/01/25 04:39:23;;;;;;;9.90;4.78;;;;;;;2.81;75.06;96257.66;4991850;28;20125;-78
2023/01/25 04:41:49;;;;;;;12.38;4.88;;;;;;;2.95;75.46;96277.63;4992531;28;20038;-77
2023/01/25 04:44:14;;;;;;;8.02;4.78;;;;;;;2.54;75.00;96209.63;4993372;28;20046;-78
2023/01/25 04:46:39;;;;;;;10.02;5.40;;;;;;;2.74;75.08;96257.63;4993725;28;20092;-77
2023/01/25 04:49:05;;;;;;;10.23;5.32;;;;;;;2.60;74.21;96227.16;4975750;28;20492;-78
2023/01/25 04:51:30;;;;;;;9.98;4.65;;;;;;;2.87;74.46;96278.63;4985672;28;20073;-78
2023/01/25 04:53:55;;;;;;;7.03;4.18;;;;;;;3.03;74.21;96298.41;5011979;28;20508;-78
2023/01/25 04:56:21;;;;;;;10.88;5.25;;;;;;;2.67;74.36;96247.13;4993080;28;20092;-77
2023/01/25 04:58:46;;;;;;;9.70;5.05;;;;;;;3.09;74.32;96292.34;4998777;28;20038;-77
2023/01/25 05:01:12;;;;;;;11.25;4.72;;;;;;;2.84;74.34;96275.56;4973955;28;20432;-77
2023/01/25 05:03:37;;;;;;;11.35;4.55;;;;;;;3.02;73.98;96302.84;4974001;28;20038;-77
2023/01/25 05:06:03;;;;;;;9.10;5.03;;;;;;;2.63;73.41;96239.88;4997151;28;20039;-77
2023/01/25 05:08:28;;;;;;;7.38;4.10;;;;;;;2.55;73.75;96221.72;4992811;28;20035;-77
2023/01/25 05:10:53;;;;;;;8.05;4.65;;;;;;;2.57;73.78;96219.72;4974508;28;20038;-77
2023/01/25 05:13:19;;;;;;;8.35;4.68;;;;;;;2.72;74.51;96249.97;4984304;28;20035;-78
2023/01/25 05:15:45;;;;;;;9.43;4.93;;;;;;;3.02;74.23;96294.16;4990403;28;20148;-78
2023/01/25 05:18:10;;;;;;;11.73;4.53;;;;;;;2.02;74.32;96129.97;4997440;28;20043;-78
2023/01/25 05:20:36;;;;;;;8.40;4.85;;;;;;;1.98;73.96;96118.28;4982707;28;20037;-79
2023/01/25 05:23:01;;;;;;;8.65;5.10;;;;;;;2.92;73.87;96278.00;4953816;28;20148;-78
2023/01/25 05:28:11;;;;;;;8.13;4.80;;;;;;;2.82;74.39;96286.28;4979723;28;20093;-78
2023/01/25 05:30:36;;;;;;;11.80;5.30;;;;;;;2.51;74.96;96259.78;4963512;28;20046;-77
2023/01/25 05:33:02;;;;;;;10.52;5.82;;;;;;;2.10;74.73;96197.00;4959554;28;20101;-78
2023/01/25 05:35:27;;;;;;;10.45;6.22;;;;;;;2.59;74.80;96293.66;4977510;28;20034;-79
2023/01/25 05:37:59;;;;;;;9.70;5.47;;;;;;;2.75;74.75;96287.25;4963278;28;20117;-78
2023/01/25 05:40:25;;;;;;;12.13;5.65;;;;;;;2.35;75.13;96257.50;4977848;28;20042;-78
2023/01/25 05:42:58;;;;;;;9.38;4.93;;;;;;;2.61;75.64;96291.63;4954150;28;20693;-78
2023/01/25 05:45:25;;;;;;;8.93;5.10;;;;;;;2.72;75.24;96297.13;4963430;28;20039;-78
2023/01/25 05:47:54;;;;;;;10.30;5.72;;;;;;;2.58;75.00;96269.28;4988183;28;20042;-78
2023/01/25 05:50:22;;;;;;;10.80;5.43;;;;;;;2.48;74.99;96262.78;4984973;28;20079;-78
2023/01/25 05:52:47;;;;;;;11.85;5.45;;;;;;;2.46;75.92;96257.72;4972893;28;20039;-81
2023/01/25 05:55:13;;;;;;;9.35;4.70;;;;;;;2.16;74.82;96207.50;4975672;28;20051;-80
2023/01/25 05:57:39;;;;;;;11.10;6.25;;;;;;;2.55;74.51;96259.19;4993181;28;20411;-79
2023/01/25 06:00:05;;;;;;;9.60;5.78;;;;;;;2.41;74.88;96231.34;4966394;28;20042;-79
2023/01/25 06:02:31;;;;;;;12.32;6.38;;;;;;;2.45;74.25;96235.16;4964546;28;20489;-79
2023/01/25 06:04:57;;;;;;;13.13;5.97;;;;;;;1.79;74.37;96132.09;4958620;28;20626;-79
2023/01/25 06:07:22;;;;;;;9.65;5.70;;;;;;;2.46;74.34;96235.97;4963235;28;20097;-81
2023/01/25 06:09:48;;;;;;;9.18;5.72;;;;;;;2.76;73.45;96279.19;4948254;28;20039;-80
2023/01/25 06:12:14;;;;;;;13.20;5.72;;;;;;;2.68;73.75;96281.97;4958599;28;20046;-82
2023/01/25 06:14:40;;;;;;;14.02;5.95;;;;;;;2.73;73.15;96300.53;4978997;28;20026;-79
2023/01/25 06:17:06;;;;;;;12.15;5.93;;;;;;;2.45;72.97;96260.53;4984873;28;20045;-82
2023/01/25 06:19:31;;;;;;;13.02;5.75;;;;;;;2.12;73.08;96208.91;4980248;28;20128;-81
2023/01/25 06:21:56;;;;;;;10.98;5.28;;;;;;;2.61;72.97;96273.28;4951826;28;20050;-82
2023/01/25 06:24:22;;;;;;;13.00;5.75;;;;;;;2.82;73.44;96304.63;4979902;28;20499;-80
2023/01/25 06:26:47;;;;;;;10.90;4.90;;;;;;;2.93;73.06;96311.88;4963024;28;20066;-80
2023/01/25 06:29:13;;;;;;;11.30;5.07;;;;;;;2.61;72.58;96258.38;4958284;28;20116;-80
2023/01/25 06:31:38;;;;;;;12.45;5.60;;;;;;;2.20;72.36;96189.59;4975440;28;20042;-80
2023/01/25 06:34:05;;;;;;;13.57;5.55;;;;;;;2.95;73.16;96315.13;4974051;28;20046;-80
2023/01/25 06:36:30;;;;;;;11.88;5.47;;;;;;;2.94;73.22;96310.88;4976815;28;20026;-82
2023/01/25 06:38:56;;;;;;;14.25;4.80;;;;;;;2.75;73.56;96284.63;4984100;28;20046;-81
2023/01/25 06:41:24;;;;;;;13.85;6.05;;;;;;;2.81;73.49;96289.88;4974248;28;20069;-82
2023/01/25 06:43:50;;;;;;;10.93;6.03;;;;;;;2.79;73.06;96283.22;4974065;28;20149;-81
2023/01/25 06:46:15;;;;;;;12.75;5.88;;;;;;;2.62;73.25;96260.00;4951855;28;20038;-81
2023/01/25 06:48:41;;;;;;;12.38;5.65;;;;;;;2.38;73.12;96200.31;4973094;28;20026;-82
2023/01/25 06:51:10;;;;;;;9.23;5.05;;;;;;;2.30;72.57;96187.41;4961602;28;20128;-82
2023/01/25 06:53:38;;;;;;;9.18;5.00;;;;;;;2.68;72.77;96253.16;4971005;28;21473;-78
2023/01/25 06:56:12;;;;;;;8.77;5.03;;;;;;;2.76;73.45;96281.00;4975981;28;20048;-80
2023/01/25 06:58:38;;;;;;;11.07;4.95;;;;;;;2.40;72.71;96223.69;4970969;28;20686;-82
2023/01/25 07:01:07;;;;;;;16.02;5.07;;;;;;;2.96;71.97;96315.94;4981405;28;20037;-81
2023/01/25 07:03:33;;;;;;;10.70;5.25;;;;;;;2.76;72.32;96287.03;4943593;28;20076;-79
2023/01/25 07:06:02;;;;;;;9.07;4.18;;;;;;;2.12;73.30;96198.44;4952291;28;20039;-78
2023/01/25 07:08:27;;;;;;;8.88;4.88;;;;;;;2.93;72.78;96313.69;4951588;28;20049;-78
2023/01/25 07:10:57;;;;;;;13.88;5.13;;;;;;;2.36;72.88;96212.00;4967513;28;20066;-80
2023/01/25 07:13:24;;;;;;;11.65;4.78;;;;;;;2.59;73.42;96264.84;4965501;28;20695;-82
2023/01/25 07:15:55;;;;;;;10.20;5.10;;;;;;;2.46;73.59;96230.75;4959965;28;20041;-81
2023/01/25 07:18:20;;;;;;;13.60;6.13;;;;;;;2.49;73.93;96238.22;4957034;28;20129;-82
2023/01/25 07:20:46;;;;;;;15.60;6.25;;;;;;;2.76;73.55;96260.84;4971510;28;20107;-80
2023/01/25 07:23:11;;;;;;;13.18;5.88;;;;;;;2.77;73.85;96257.22;4971490;28;20049;-80
2023/01/25 07:25:42;;;;;;;12.75;6.50;;;;;;;2.58;74.12;96235.22;4970682;28;20054;-79
2023/01/25 07:28:07;;;;;;;15.45;6.97;;;;;;;2.40;72.70;96202.75;4935683;28;20031;-81
2023/01/25 07:30:33;;;;;;;12.80;6.00;;;;;;;2.45;73.16;96227.31;4960867;28;20065;-80
2023/01/25 07:32:58;;;;;;;9.25;5.47;;;;;;;2.80;72.75;96317.09;4961578;28;20034;-81
2023/01/25 07:35:24;;;;;;;11.82;6.07;;;;;;;2.52;73.47;96274.47;4959971;28;20038;-79
2023/01/25 07:37:49;;;;;;;10.98;6.30;;;;;;;2.25;73.54;96253.44;4957604;28;20039;-79
2023/01/25 07:40:15;;;;;;;13.25;6.10;;;;;;;2.39;72.71;96263.94;4942099;28;20038;-80
2023/01/25 07:42:41;;;;;;;13.90;5.65;;;;;;;2.35;73.23;96237.38;4951965;28;20537;-79
2023/01/25 07:45:07;;;;;;;8.45;5.35;;;;;;;2.57;73.56;96266.84;4958096;28;20079;-78
2023/01/25 07:47:33;;;;;;;9.95;5.70;;;;;;;2.33;72.77;96240.19;4955933;28;20042;-79
2023/01/25 07:49:58;;;;;;;21.35;8.75;;;;;;;2.28;73.13;96233.94;4937833;28;20110;-80
2023/01/25 07:52:24;;;;;;;13.52;5.85;;;;;;;2.47;71.92;96251.50;4946892;28;20531;-81
2023/01/25 07:54:49;;;;;;;9.93;6.03;;;;;;;2.09;73.01;96206.66;4947727;28;20035;-83
2023/01/25 07:57:15;;;;;;;11.07;5.78;;;;;;;1.84;72.38;96214.19;4954707;28;20062;-81
2023/01/25 07:59:40;;;;;;;14.88;5.45;;;;;;;2.03;73.11;96253.72;4939885;28;20060;-82
2023/01/25 08:02:09;;;;;;;8.10;4.97;;;;;;;1.85;72.83;96207.16;4932987;28;20438;-81
2023/01/25 08:04:34;;;;;;;11.45;6.15;;;;;;;2.22;73.38;96259.06;4948159;28;20035;-81
2023/01/25 08:07:00;;;;;;;12.40;6.35;;;;;;;1.92;74.33;96215.84;4932290;28;20037;-82
2023/01/25 08:09:25;;;;;;;11.15;6.00;;;;;;;2.57;74.50;96320.03;4932525;28;20042;-81
2023/01/25 08:11:52;;;;;;;9.98;5.78;;;;;;;2.05;74.12;96229.00;4932564;28;20043;-80
2023/01/25 08:14:18;;;;;;;13.32;6.78;;;;;;;1.85;73.55;96241.16;4945382;28;20247;-80
2023/01/25 08:16:43;;;;;;;21.17;7.75;;;;;;;1.60;74.25;96165.00;4934315;28;20585;-80
2023/01/25 08:19:10;;;;;;;18.17;7.65;;;;;;;2.46;73.85;96296.19;4929949;28;20150;-80
2023/01/25 08:21:36;;;;;;;13.07;7.22;;;;;;;2.66;74.08;96323.28;4929457;28;20038;-81
2023/01/25 08:24:04;;;;;;;11.48;6.50;;;;;;;2.77;74.68;96314.03;4943348;28;20065;-79
2023/01/25 08:26:30;;;;;;;15.93;7.18;;;;;;;1.89;74.87;96230.13;4954455;28;20098;-80
2023/01/25 08:28:56;;;;;;;15.82;8.13;;;;;;;2.64;74.77;96315.63;4962065;28;20038;-79
2023/01/25 08:31:25;;;;;;;16.17;7.00;;;;;;;2.05;74.46;96213.31;4960265;28;20095;-80
2023/01/25 08:33:51;;;;;;;15.63;7.95;;;;;;;2.43;74.30;96275.66;4964203;28;20172;-80
2023/01/25 08:36:17;;;;;;;14.45;8.15;;;;;;;2.50;74.76;96286.97;4933423;28;20179;-80
2023/01/25 08:38:44;;;;;;;13.68;7.28;;;;;;;2.57;74.39;96286.00;4960703;28;20042;-80
2023/01/25 08:41:18;;;;;;;15.77;7.60;;;;;;;2.46;74.71;96285.72;4964569;28;20470;-79
2023/01/25 08:43:44;;;;;;;11.85;6.65;;;;;;;2.36;74.79;96267.78;4963455;28;20121;-81
2023/01/25 08:46:10;;;;;;;13.38;8.07;;;;;;;2.70;75.36;96308.78;4952163;28;20038;-81
2023/01/25 08:48:36;;;;;;;13.70;7.45;;;;;;;2.46;75.22;96268.22;4937919;28;20041;-80
2023/01/25 08:51:02;;;;;;;12.98;7.75;;;;;;;2.70;75.43;96299.13;4966341;28;20038;-80
2023/01/25 08:53:31;;;;;;;13.93;8.85;;;;;;;2.32;75.12;96208.97;4937425;28;20026;-81
2023/01/25 08:56:09;;;;;;;14.77;8.25;;;;;;;2.75;74.83;96258.44;4950529;28;20070;-79
2023/01/25 08:58:37;;;;;;;14.18;7.50;;;;;;;2.96;73.95;96305.44;4941166;28;20540;-79
2023/01/25 09:01:05;;;;;;;13.82;8.07;;;;;;;2.21;74.51;96157.19;4935904;28;20434;-82
2023/01/25 09:03:33;;;;;;;15.00;9.27;;;;;;;2.83;74.33;96256.41;4932776;28;20121;-80
2023/01/25 09:05:59;;;;;;;16.70;9.48;;;;;;;3.01;75.75;96310.88;4940666;28;20050;-79
2023/01/25 09:08:24;;;;;;;15.07;10.13;;;;;;;2.90;75.14;96267.72;4946529;28;21075;-80
2023/01/25 09:10:50;;;;;;;12.63;8.35;;;;;;;3.15;73.66;96299.41;4945003;28;20161;-81
2023/01/25 09:13:15;;;;;;;16.08;8.35;;;;;;;3.10;74.09;96300.03;4960350;28;20043;-81
2023/01/25 09:15:40;;;;;;;15.27;9.40;;;;;;;2.63;75.23;96217.09;4939034;28;20045;-81
2023/01/25 09:18:06;;;;;;;15.57;8.75;;;;;;;2.85;74.75;96249.19;4940604;28;20038;-80
2023/01/25 09:20:31;;;;;;;12.68;7.78;;;;;;;3.02;74.82;96274.00;4956943;28;20046;-82
2023/01/25 09:22:57;;;;;;;16.25;8.50;;;;;;;2.73;74.91;96235.06;4960782;28;20045;-79
2023/01/25 09:25:22;;;;;;;15.68;8.35;;;;;;;2.94;75.05;96249.81;4961486;28;20058;-80
2023/01/25 09:27:50;;;;;;;17.52;9.07;;;;;;;3.01;76.34;96290.72;4981160;28;20058;-80
2023/01/25 09:30:16;;;;;;;13.48;8.48;;;;;;;2.84;76.19;96263.28;4974626;28;20073;-81
2023/01/25 09:32:42;;;;;;;16.92;8.40;;;;;;;2.37;76.57;96197.88;4972476;28;20052;-80
2023/01/25 09:35:07;;;;;;;19.10;8.85;;;;;;;2.99;76.63;96255.25;4956017;28;20436;-80
2023/01/25 09:37:33;;;;;;;16.23;8.70;;;;;;;2.81;75.96;96206.06;4976146;28;20045;-80
2023/01/25 09:39:59;;;;;;;13.25;8.30;;;;;;;2.79;76.07;96244.75;4966648;28;20471;-80
2023/01/25 09:42:42;;;;;;;13.10;7.93;;;;;;;3.06;76.54;96267.34;4964095;28;20041;-81
2023/01/25 09:45:11;;;;;;;18.02;8.65;;;;;;;2.95;76.40;96254.84;4978358;28;20046;-82
2023/01/25 09:47:47;;;;;;;12.27;8.00;;;;;;;2.69;76.60;96234.63;4975513;28;20525;-78
2023/01/25 09:50:27;;;;;;;14.50;8.23;;;;;;;3.07;76.88;96255.06;4976901;28;20331;-83
2023/01/25 09:53:13;;;;;;;13.80;7.90;;;;;;;3.05;75.89;96252.63;4967331;28;20038;-82
2023/01/25 09:55:40;;;;;;;12.15;8.18;;;;;;;2.61;75.49;96142.34;4975075;28;20045;-80
2023/01/25 09:58:13;;;;;;;13.82;8.57;;;;;;;2.99;75.31;96208.06;4975654;28;20029;-80
2023/01/25 10:00:44;;;;;;;12.35;7.97;;;;;;;3.03;75.67;96194.38;4979773;28;20436;-82
2023/01/25 10:03:33;;;;;;;15.90;8.18;;;;;;;3.38;75.75;96234.28;4975611;28;20042;-81
2023/01/25 10:06:01;;;;;;;12.73;7.65;;;;;;;3.33;75.26;96197.41;4979814;28;20088;-80
2023/01/25 10:08:47;;;;;;;14.13;7.43;;;;;;;3.09;74.30;96166.56;4953603;28;20042;-80
2023/01/25 10:11:26;;;;;;;11.25;7.30;;;;;;;3.41;73.38;96218.16;4973974;28;20134;-79
2023/01/25 10:13:54;;;;;;;11.90;7.25;;;;;;;2.99;73.14;96192.34;4962308;28;20045;-81
2023/01/25 10:16:25;;;;;;;11.57;7.10;;;;;;;2.88;72.95;96135.31;4967507;28;20125;-80
2023/01/25 10:19:28;;;;;;;16.00;7.70;;;;;;;3.48;73.01;96207.66;4955685;28;20054;-87
2023/01/25 10:22:04;;;;;;;10.60;6.80;;;;;;;3.55;72.52;96184.84;4957345;28;20042;-80
2023/01/25 10:25:03;;;;;;;9.55;5.60;;;;;;;3.49;71.61;96196.97;4951528;28;20041;-80
2023/01/25 10:27:51;;;;;;;9.63;5.82;;;;;;;3.18;71.11;96170.59;4958966;28;20451;-83
2023/01/25 10:30:28;;;;;;;7.70;5.40;;;;;;;2.95;71.25;96102.88;4967681;28;20455;-83
2023/01/25 10:33:03;;;;;;;13.68;7.00;;;;;;;3.41;71.54;96164.91;4962661;28;20768;-78
2023/01/25 10:35:35;;;;;;;10.38;5.53;;;;;;;3.72;70.74;96188.66;4938865;28;20050;-79
2023/01/25 10:38:09;;;;;;;19.83;7.22;;;;;;;3.69;71.37;96162.81;4968024;28;20038;-78
2023/01/25 10:40:45;;;;;;;11.80;7.18;;;;;;;3.58;71.12;96137.25;4967029;28;20470;-79
2023/01/25 10:43:19;;;;;;;13.85;7.88;;;;;;;3.51;70.95;96164.50;4972464;28;20039;-78
2023/01/25 10:45:45;;;;;;;15.02;7.88;;;;;;;3.77;70.17;96143.41;4974935;28;20035;-79
2023/01/25 10:48:17;;;;;;;16.98;8.57;;;;;;;3.99;70.99;96167.56;4971479;28;20038;-78
2023/01/25 10:50:46;;;;;;;12.20;6.85;;;;;;;3.45;70.00;96071.69;4955537;28;20472;-80
2023/01/25 10:53:43;;;;;;;12.05;5.82;;;;;;;4.05;70.49;96169.34;4969862;28;20141;-81
2023/01/25 10:56:08;;;;;;;14.88;6.70;;;;;;;4.04;70.07;96160.69;4979855;28;20033;-80
2023/01/25 10:58:45;;;;;;;11.20;5.20;;;;;;;3.81;70.02;96165.63;4970249;28;20061;-79
2023/01/25 11:01:31;;;;;;;12.98;5.97;;;;;;;3.01;70.32;95993.81;4952002;28;20040;-79
2023/01/25 11:03:58;;;;;;;23.13;6.72;;;;;;;3.92;70.02;96136.09;4959415;28;20054;-79
2023/01/25 11:06:34;;;;;;;11.15;5.90;;;;;;;4.10;69.07;96156.44;4959256;28;20036;-83
2023/01/25 11:09:20;;;;;;;7.20;5.25;;;;;;;4.03;70.12;96151.22;4969560;28;20548;-80
2023/01/25 11:11:53;;;;;;;7.80;5.13;;;;;;;3.47;69.29;96052.13;4978631;28;20045;-84
2023/01/25 11:14:22;;;;;;;12.10;6.35;;;;;;;4.12;70.13;96139.44;4970994;28;20153;-79
2023/01/25 11:16:47;;;;;;;12.27;6.50;;;;;;;3.88;68.15;96106.84;4978516;28;20579;-80
2023/01/25 11:19:39;;;;;;;17.05;6.80;;;;;;;4.22;68.85;96131.91;4966643;28;20076;-78
2023/01/25 11:22:18;;;;;;;10.40;6.25;;;;;;;4.31;68.00;96126.41;4972080;28;20415;-77
2023/01/25 11:24:45;;;;;;;8.10;5.30;;;;;;;4.17;67.68;96130.94;4971858;28;20038;-77
2023/01/25 11:27:18;;;;;;;17.08;5.97;;;;;;;4.13;67.92;96106.09;4922662;28;20658;-77
2023/01/25 11:29:48;;;;;;;9.55;5.80;;;;;;;4.07;67.80;96104.34;4956283;28;20045;-78
2023/01/25 11:32:21;;;;;;;10.65;6.05;;;;;;;4.05;68.76;96085.34;4947074;28;20062;-76
2023/01/25 11:34:48;;;;;;;12.25;5.95;;;;;;;4.46;68.07;96132.19;4947657;28;20125;-76
2023/01/25 11:37:40;;;;;;;10.73;7.38;;;;;;;4.23;68.69;96122.22;4947143;28;20041;-76
2023/01/25 11:40:05;;;;;;;;;;;;;;;4.01;69.13;96118.31;4959288;28;20084;-76
2023/01/25 11:42:31;;;;;;;14.80;6.25;;;;;;;4.19;68.87;96111.34;4949619;28;20478;-76
2023/01/25 11:45:05;;;;;;;9.52;6.00;;;;;;;4.35;67.75;96109.25;4933312;28;20109;-76